createdAt,value
2023-01-18T00:01:15.926Z,98390.06
2023-01-18T00:03:42.556Z,98390.97
2023-01-18T00:06:10.715Z,98400.94
2023-01-18T00:08:38.664Z,98398.50
2023-01-18T00:11:06.956Z,98388.75
2023-01-18T00:13:33.984Z,98396.09
2023-01-18T00:16:09.974Z,98392.03
2023-01-18T00:18:36.580Z,98387.78
2023-01-18T00:21:04.563Z,98390.09
2023-01-18T00:23:31.372Z,98399.16
2023-01-18T00:26:02.103Z,98389.19
2023-01-18T00:28:29.101Z,98385.72
2023-01-18T00:30:55.473Z,98402.72
2023-01-18T00:33:22.171Z,98401.19
2023-01-18T00:35:58.695Z,98398.19
2023-01-18T00:38:25.761Z,98402.50
2023-01-18T00:40:52.167Z,98403.78
2023-01-18T00:43:37.063Z,98397.91
2023-01-18T00:46:03.474Z,98396.25
2023-01-18T00:48:29.925Z,98398.53
2023-01-18T00:50:56.311Z,98401.97
2023-01-18T00:53:22.698Z,98398.56
2023-01-18T00:55:49.094Z,98394.69
2023-01-18T00:58:15.516Z,98399.44
2023-01-18T01:00:42.181Z,98404.75
2023-01-18T01:03:08.803Z,98404.94
2023-01-18T01:05:56.342Z,98408.94
2023-01-18T01:08:23.542Z,98410.47
2023-01-18T01:10:51.254Z,98407.13
2023-01-18T01:13:38.515Z,98409.16
2023-01-18T01:16:28.563Z,98412.91
2023-01-18T01:19:13.914Z,98406.47
2023-01-18T01:21:59.470Z,98417.03
2023-01-18T01:24:44.808Z,98408.63
2023-01-18T01:27:12.011Z,98403.84
2023-01-18T01:29:38.735Z,98405.13
2023-01-18T01:32:05.705Z,98410.97
2023-01-18T01:34:32.528Z,98412.91
2023-01-18T01:36:58.882Z,98417.25
2023-01-18T01:39:25.279Z,98416.75
2023-01-18T01:41:51.680Z,98420.03
2023-01-18T01:44:18.371Z,98422.81
2023-01-18T01:46:49.953Z,98427.63
2023-01-18T01:49:18.928Z,98425.34
2023-01-18T01:51:47.668Z,98431.91
2023-01-18T01:54:24.966Z,98428.59
2023-01-18T01:56:53.800Z,98429.13
2023-01-18T01:59:20.263Z,98432.25
2023-01-18T02:01:46.728Z,98427.31
2023-01-18T02:04:13.197Z,98425.63
2023-01-18T02:06:40.069Z,98426.25
2023-01-18T02:09:15.598Z,98430.09
2023-01-18T02:11:43.114Z,98427.75
2023-01-18T02:14:12.418Z,98439.59
2023-01-18T02:17:05.017Z,98437.00
2023-01-18T02:19:49.947Z,98436.59
2023-01-18T02:22:25.437Z,98433.22
2023-01-18T02:25:26.944Z,98440.22
2023-01-18T02:28:15.623Z,98443.50
2023-01-18T02:30:49.463Z,98446.50
2023-01-18T02:33:25.758Z,98452.25
2023-01-18T02:35:56.812Z,98452.66
2023-01-18T02:38:40.073Z,98444.03
2023-01-18T02:41:09.582Z,98453.00
2023-01-18T02:43:54.883Z,98453.69
2023-01-18T02:46:30.735Z,98459.63
2023-01-18T02:48:58.146Z,98463.94
2023-01-18T02:51:25.245Z,98461.50
2023-01-18T02:53:51.626Z,98473.31
2023-01-18T02:56:21.975Z,98471.06
2023-01-18T02:59:12.978Z,98463.13
2023-01-18T03:01:50.852Z,98461.22
2023-01-18T03:04:22.573Z,98463.97
2023-01-18T03:06:51.875Z,98464.78
2023-01-18T03:09:21.316Z,98467.22
2023-01-18T03:11:56.826Z,98466.41
2023-01-18T03:14:44.399Z,98474.78
2023-01-18T03:17:28.947Z,98479.25
2023-01-18T03:20:08.296Z,98481.69
2023-01-18T03:23:15.423Z,98473.63
2023-01-18T03:25:44.413Z,98470.84
2023-01-18T03:28:33.528Z,98470.78
2023-01-18T03:31:22.128Z,98476.53
2023-01-18T03:33:53.866Z,98479.63
2023-01-18T03:36:36.194Z,98485.31
2023-01-18T03:39:03.939Z,98481.91
2023-01-18T03:41:32.962Z,98486.41
2023-01-18T03:44:03.985Z,98485.09
2023-01-18T03:46:32.087Z,98487.97
2023-01-18T03:48:58.797Z,98497.47
2023-01-18T03:51:40.859Z,98486.75
2023-01-18T03:54:34.690Z,98496.66
2023-01-18T03:57:17.540Z,98494.97
2023-01-18T03:59:44.222Z,98502.50
2023-01-18T04:02:10.632Z,98502.41
2023-01-18T04:04:37.087Z,98502.03
2023-01-18T04:07:04.162Z,98506.78
2023-01-18T04:09:30.550Z,98503.72
2023-01-18T04:11:56.925Z,98508.22
2023-01-18T04:14:23.320Z,98511.44
2023-01-18T04:16:50.266Z,98513.09
2023-01-18T04:19:17.140Z,98520.47
2023-01-18T04:21:43.680Z,98526.69
2023-01-18T04:24:11.224Z,98518.56
2023-01-18T04:26:38.324Z,98518.91
2023-01-18T04:29:05.300Z,98532.25
2023-01-18T04:31:32.857Z,98522.41
2023-01-18T04:33:59.328Z,98523.03
2023-01-18T04:36:25.761Z,98529.69
2023-01-18T04:38:53.836Z,98537.38
2023-01-18T04:41:20.345Z,98537.75
2023-01-18T04:43:46.703Z,98532.94
2023-01-18T04:46:13.167Z,98541.34
2023-01-18T04:48:39.579Z,98541.50
2023-01-18T04:51:11.668Z,98535.50
2023-01-18T04:53:38.138Z,98534.31
2023-01-18T04:56:04.834Z,98534.91
2023-01-18T04:58:31.271Z,98542.56
2023-01-18T05:01:02.341Z,98534.63
2023-01-18T05:03:28.795Z,98541.41
2023-01-18T05:05:55.259Z,98544.69
2023-01-18T05:08:21.975Z,98545.34
2023-01-18T05:10:48.351Z,98552.56
2023-01-18T05:13:14.748Z,98553.56
2023-01-18T05:15:41.139Z,98559.00
2023-01-18T05:18:07.511Z,98556.53
2023-01-18T05:20:33.902Z,98564.38
2023-01-18T05:23:02.204Z,98564.22
2023-01-18T05:25:28.578Z,98564.66
2023-01-18T05:27:54.942Z,98574.78
2023-01-18T05:30:21.334Z,98579.66
2023-01-18T05:32:47.718Z,98575.38
2023-01-18T05:35:14.469Z,98573.44
2023-01-18T05:37:40.869Z,98581.63
2023-01-18T05:40:09.218Z,98586.50
2023-01-18T05:42:35.586Z,98583.28
2023-01-18T05:45:01.994Z,98596.94
2023-01-18T05:47:28.519Z,98600.50
2023-01-18T05:49:57.692Z,98587.69
2023-01-18T05:52:24.099Z,98595.22
2023-01-18T05:54:50.466Z,98596.03
2023-01-18T05:57:16.854Z,98602.22
2023-01-18T05:59:43.230Z,98611.03
2023-01-18T06:02:09.721Z,98614.03
2023-01-18T06:04:36.228Z,98618.94
2023-01-18T06:07:02.735Z,98623.31
2023-01-18T06:09:30.051Z,98626.31
2023-01-18T06:11:56.689Z,98621.06
2023-01-18T06:14:23.221Z,98627.06
2023-01-18T06:16:49.620Z,98632.03
2023-01-18T06:19:16.082Z,98642.88
2023-01-18T06:21:42.493Z,98645.81
2023-01-18T06:24:08.898Z,98649.22
2023-01-18T06:26:35.316Z,98649.78
2023-01-18T06:29:01.753Z,98655.56
2023-01-18T06:31:28.190Z,98653.69
2023-01-18T06:33:54.584Z,98659.81
2023-01-18T06:36:20.971Z,98661.75
2023-01-18T06:38:47.338Z,98661.47
2023-01-18T06:41:13.785Z,98663.53
2023-01-18T06:43:40.165Z,98666.25
2023-01-18T06:46:08.086Z,98666.03
2023-01-18T06:48:34.519Z,98669.00
2023-01-18T06:51:00.995Z,98678.03
2023-01-18T06:53:27.461Z,98684.75
2023-01-18T06:55:58.539Z,98674.75
2023-01-18T06:58:26.319Z,98687.28
2023-01-18T07:00:56.468Z,98684.88
2023-01-18T07:03:23.773Z,98689.63
2023-01-18T07:05:50.232Z,98685.16
2023-01-18T07:08:16.771Z,98686.63
2023-01-18T07:10:43.152Z,98696.88
2023-01-18T07:13:09.533Z,98702.69
2023-01-18T07:15:35.910Z,98697.31
2023-01-18T07:18:02.289Z,98701.31
2023-01-18T07:20:29.422Z,98710.59
2023-01-18T07:22:56.269Z,98712.50
2023-01-18T07:25:22.941Z,98715.63
2023-01-18T07:27:49.786Z,98722.16
2023-01-18T07:30:16.903Z,98726.47
2023-01-18T07:32:51.281Z,98730.03
2023-01-18T07:35:21.958Z,98734.47
2023-01-18T07:37:53.134Z,98733.13
2023-01-18T07:40:21.217Z,98733.69
2023-01-18T07:42:48.877Z,98728.88
2023-01-18T07:45:15.584Z,98732.88
2023-01-18T07:47:42.531Z,98740.50
2023-01-18T07:50:09.977Z,98742.16
2023-01-18T07:52:36.409Z,98744.81
2023-01-18T07:55:03.724Z,98738.09
2023-01-18T07:57:31.076Z,98740.75
2023-01-18T07:59:57.563Z,98748.88
2023-01-18T08:02:24.198Z,98749.34
2023-01-18T08:04:50.626Z,98755.47
2023-01-18T08:07:17.809Z,98763.34
2023-01-18T08:09:44.605Z,98767.63
2023-01-18T08:12:13.788Z,98773.31
2023-01-18T08:14:40.415Z,98767.34
2023-01-18T08:17:07.023Z,98767.47
2023-01-18T08:19:34.007Z,98775.69
2023-01-18T08:22:00.406Z,98776.00
2023-01-18T08:24:29.099Z,98793.63
2023-01-18T08:26:55.518Z,98790.91
2023-01-18T08:29:21.987Z,98791.53
2023-01-18T08:31:54.179Z,98788.47
2023-01-18T08:34:21.681Z,98798.00
2023-01-18T08:36:48.074Z,98802.16
2023-01-18T08:39:14.982Z,98806.47
2023-01-18T08:41:41.863Z,98809.53
2023-01-18T08:44:08.274Z,98812.72
2023-01-18T08:46:36.161Z,98816.16
2023-01-18T08:49:05.568Z,98817.19
2023-01-18T08:51:32.545Z,98820.78
2023-01-18T08:53:59.763Z,98817.13
2023-01-18T08:56:26.560Z,98822.16
2023-01-18T08:58:53.018Z,98836.00
2023-01-18T09:01:19.810Z,98834.88
2023-01-18T09:03:47.928Z,98841.50
2023-01-18T09:06:16.600Z,98839.50
2023-01-18T09:08:43.105Z,98842.88
2023-01-18T09:11:10.421Z,98849.13
2023-01-18T09:13:47.859Z,98851.66
2023-01-18T09:16:25.408Z,98864.47
2023-01-18T09:18:52.063Z,98863.88
2023-01-18T09:21:18.513Z,98864.69
2023-01-18T09:23:45.564Z,98864.13
2023-01-18T09:26:16.985Z,98858.50
2023-01-18T09:28:44.818Z,98876.28
2023-01-18T09:31:12.345Z,98867.97
2023-01-18T09:33:39.747Z,98874.28
2023-01-18T09:36:09.852Z,98878.34
2023-01-18T09:38:37.611Z,98881.91
2023-01-18T09:41:15.137Z,98879.44
2023-01-18T09:43:51.278Z,98883.53
2023-01-18T09:46:22.843Z,98891.66
2023-01-18T09:48:58.093Z,98891.34
2023-01-18T09:51:31.357Z,98882.34
2023-01-18T09:54:25.722Z,98883.22
2023-01-18T09:56:52.021Z,98893.22
2023-01-18T09:59:19.208Z,98892.50
2023-01-18T10:01:46.087Z,98897.34
2023-01-18T10:04:17.099Z,98889.75
2023-01-18T10:06:59.361Z,98896.16
2023-01-18T10:09:32.431Z,98896.97
2023-01-18T10:12:23.538Z,98892.94
2023-01-18T10:14:56.959Z,98889.50
2023-01-18T10:17:35.574Z,98905.38
2023-01-18T10:20:13.132Z,98908.72
2023-01-18T10:22:47.642Z,98899.31
2023-01-18T10:25:33.026Z,98901.88
2023-01-18T10:28:25.049Z,98899.56
2023-01-18T10:31:29.136Z,98898.53
2023-01-18T10:33:57.506Z,98898.16
2023-01-18T10:36:34.852Z,98901.25
2023-01-18T10:39:04.199Z,98908.59
2023-01-18T10:41:37.877Z,98915.72
2023-01-18T10:44:04.443Z,98912.16
2023-01-18T10:46:32.058Z,98920.06
2023-01-18T10:48:59.122Z,98913.56
2023-01-18T10:51:38.747Z,98928.69
2023-01-18T10:54:22.460Z,98921.56
2023-01-18T10:56:49.215Z,98928.28
2023-01-18T10:59:25.134Z,98932.38
2023-01-18T11:01:54.459Z,98935.28
2023-01-18T11:04:24.954Z,98938.50
2023-01-18T11:06:52.145Z,98927.19
2023-01-18T11:09:36.879Z,98930.16
2023-01-18T11:12:41.371Z,98934.97
2023-01-18T11:15:13.991Z,98943.88
2023-01-18T11:17:44.474Z,98943.00
2023-01-18T11:20:23.259Z,98943.13
2023-01-18T11:22:59.494Z,98938.66
2023-01-18T11:25:37.562Z,98937.03
2023-01-18T11:28:07.330Z,98939.56
2023-01-18T11:30:34.150Z,98942.63
2023-01-18T11:33:00.951Z,98933.59
2023-01-18T11:35:32.214Z,98935.78
2023-01-18T11:38:00.759Z,98941.34
2023-01-18T11:40:29.570Z,98944.31
2023-01-18T11:43:09.230Z,98946.06
2023-01-18T11:45:59.295Z,98936.28
2023-01-18T11:49:03.098Z,98932.81
2023-01-18T11:51:43.676Z,98937.50
2023-01-18T11:54:18.746Z,98934.22
2023-01-18T11:56:49.031Z,98937.13
2023-01-18T11:59:28.062Z,98930.91
2023-01-18T12:02:31.946Z,98934.84
2023-01-18T12:05:52.956Z,98933.06
2023-01-18T12:08:40.740Z,98932.94
2023-01-18T12:11:19.900Z,98926.94
2023-01-18T12:13:57.797Z,98926.00
2023-01-18T12:16:51.409Z,98930.59
2023-01-18T12:19:26.658Z,98927.16
2023-01-18T12:22:09.381Z,98930.19
2023-01-18T12:24:49.286Z,98929.00
2023-01-18T12:28:00.612Z,98932.94
2023-01-18T12:30:33.179Z,98930.88
2023-01-18T12:33:18.300Z,98930.00
2023-01-18T12:35:59.739Z,98926.69
2023-01-18T12:38:27.976Z,98936.25
2023-01-18T12:41:33.911Z,98939.69
2023-01-18T12:44:16.962Z,98936.63
2023-01-18T12:46:46.192Z,98932.34
2023-01-18T12:49:21.331Z,98932.88
2023-01-18T12:51:51.791Z,98934.28
2023-01-18T12:54:39.790Z,98936.91
2023-01-18T12:57:06.651Z,98935.34
2023-01-18T13:00:07.047Z,98936.63
2023-01-18T13:02:39.066Z,98949.84
2023-01-18T13:05:36.910Z,98944.91
2023-01-18T13:08:14.529Z,98943.31
2023-01-18T13:10:41.587Z,98953.00
2023-01-18T13:13:27.122Z,98954.25
2023-01-18T13:15:59.108Z,98946.91
2023-01-18T13:18:34.269Z,98952.13
2023-01-18T13:21:12.732Z,98950.63
2023-01-18T13:23:50.378Z,98954.44
2023-01-18T13:26:22.190Z,98943.47
2023-01-18T13:28:48.581Z,98949.84
2023-01-18T13:31:15.485Z,98952.13
2023-01-18T13:33:45.363Z,98957.84
2023-01-18T13:36:14.237Z,98957.94
2023-01-18T13:39:01.086Z,98953.69
2023-01-18T13:41:29.361Z,98953.44
2023-01-18T13:43:58.628Z,98959.44
2023-01-18T13:46:25.843Z,98958.06
2023-01-18T13:49:35.842Z,98959.44
2023-01-18T13:52:30.507Z,98956.34
2023-01-18T13:55:00.960Z,98963.63
2023-01-18T13:57:27.488Z,98960.81
2023-01-18T13:59:54.072Z,98963.59
2023-01-18T14:02:41.986Z,98972.66
2023-01-18T14:05:17.768Z,98974.38
2023-01-18T14:07:47.252Z,98974.34
2023-01-18T14:10:36.329Z,98976.03
2023-01-18T14:13:08.293Z,98984.88
2023-01-18T14:15:47.255Z,98985.75
2023-01-18T14:18:27.514Z,98991.19
2023-01-18T14:21:47.882Z,98991.19
2023-01-18T14:24:37.569Z,98993.50
2023-01-18T14:27:04.946Z,99001.34
2023-01-18T14:29:36.850Z,99004.25
2023-01-18T14:32:05.923Z,98999.81
2023-01-18T14:34:40.639Z,99017.22
2023-01-18T14:37:32.293Z,99018.09
2023-01-18T14:40:05.816Z,99020.16
2023-01-18T14:42:34.798Z,99015.66
2023-01-18T14:45:05.933Z,99020.22
2023-01-18T14:47:33.396Z,99016.19
2023-01-18T14:50:03.869Z,99020.94
2023-01-18T14:52:32.191Z,99016.13
2023-01-18T14:54:58.600Z,99020.84
2023-01-18T14:57:24.968Z,99024.03
2023-01-18T14:59:53.412Z,99034.41
2023-01-18T15:02:27.449Z,99026.88
2023-01-18T15:05:16.702Z,99035.41
2023-01-18T15:07:45.695Z,99043.06
2023-01-18T15:10:16.486Z,99045.25
2023-01-18T15:12:45.731Z,99047.03
2023-01-18T15:15:22.143Z,99051.16
2023-01-18T15:17:49.498Z,99062.00
2023-01-18T15:20:16.004Z,99063.41
2023-01-18T15:22:42.977Z,99063.53
2023-01-18T15:25:19.679Z,99057.81
2023-01-18T15:27:51.230Z,99063.41
2023-01-18T15:30:19.524Z,99060.47
2023-01-18T15:32:47.794Z,99058.72
2023-01-18T15:35:14.643Z,99057.31
2023-01-18T15:37:41.947Z,99057.44
2023-01-18T15:40:14.303Z,99067.38
2023-01-18T15:42:48.095Z,99068.28
2023-01-18T15:45:20.748Z,99065.19
2023-01-18T15:47:48.963Z,99066.50
2023-01-18T15:50:18.991Z,99068.25
2023-01-18T15:53:06.161Z,99072.84
2023-01-18T15:55:34.995Z,99076.31
2023-01-18T15:58:04.347Z,99075.91
2023-01-18T16:00:37.946Z,99071.59
2023-01-18T16:03:05.903Z,99078.94
2023-01-18T16:05:32.584Z,99075.78
2023-01-18T16:08:17.857Z,99078.81
2023-01-18T16:10:52.841Z,99074.75
2023-01-18T16:13:37.168Z,99068.25
2023-01-18T16:16:17.452Z,99075.91
2023-01-18T16:18:47.357Z,99062.91
2023-01-18T16:21:21.424Z,99066.34
2023-01-18T16:23:49.260Z,99066.84
2023-01-18T16:26:18.907Z,99070.81
2023-01-18T16:28:45.404Z,99079.22
2023-01-18T16:31:12.073Z,99084.31
2023-01-18T16:33:38.495Z,99088.22
2023-01-18T16:36:16.943Z,99080.47
2023-01-18T16:38:43.407Z,99088.34
2023-01-18T16:41:10.364Z,99101.34
2023-01-18T16:43:36.728Z,99100.72
2023-01-18T16:46:04.388Z,99107.56
2023-01-18T16:48:33.443Z,99103.63
2023-01-18T16:51:01.234Z,99109.63
2023-01-18T16:53:28.624Z,99099.94
2023-01-18T16:55:56.548Z,99110.13
2023-01-18T16:58:23.923Z,99110.91
2023-01-18T17:01:06.937Z,99110.50
2023-01-18T17:03:35.810Z,99114.84
2023-01-18T17:06:02.795Z,99117.25
2023-01-18T17:08:29.356Z,99119.38
2023-01-18T17:10:55.815Z,99121.06
2023-01-18T17:13:22.263Z,99114.41
2023-01-18T17:15:48.675Z,99122.28
2023-01-18T17:18:25.325Z,99131.09
2023-01-18T17:20:52.929Z,99124.72
2023-01-18T17:23:19.490Z,99123.97
2023-01-18T17:25:46.358Z,99142.81
2023-01-18T17:28:14.535Z,99146.50
2023-01-18T17:30:42.332Z,99153.78
2023-01-18T17:33:14.728Z,99152.22
2023-01-18T17:35:41.104Z,99155.50
2023-01-18T17:38:22.097Z,99153.97
2023-01-18T17:40:49.325Z,99151.91
2023-01-18T17:43:28.547Z,99169.97
2023-01-18T17:46:01.999Z,99165.94
2023-01-18T17:48:28.766Z,99176.38
2023-01-18T17:50:55.139Z,99180.16
2023-01-18T17:53:21.518Z,99180.28
2023-01-18T17:55:47.890Z,99176.72
2023-01-18T17:58:14.284Z,99173.28
2023-01-18T18:00:40.740Z,99181.69
2023-01-18T18:03:07.724Z,99178.91
2023-01-18T18:05:34.320Z,99181.69
2023-01-18T18:08:00.823Z,99180.41
2023-01-18T18:10:27.232Z,99177.03
2023-01-18T18:12:53.622Z,99176.41
2023-01-18T18:15:22.307Z,99185.16
2023-01-18T18:17:49.387Z,99198.88
2023-01-18T18:20:16.111Z,99203.06
2023-01-18T18:22:42.608Z,99207.41
2023-01-18T18:25:09.283Z,99201.28
2023-01-18T18:27:45.517Z,99205.75
2023-01-18T18:30:12.818Z,99197.16
2023-01-18T18:32:39.211Z,99216.41
2023-01-18T18:35:14.821Z,99208.91
2023-01-18T18:37:50.325Z,99225.00
2023-01-18T18:40:16.957Z,99218.63
2023-01-18T18:42:47.312Z,99215.19
2023-01-18T18:45:19.522Z,99223.72
2023-01-18T18:47:45.903Z,99225.72
2023-01-18T18:50:12.274Z,99229.28
2023-01-18T18:52:38.657Z,99228.75
2023-01-18T18:55:05.412Z,99229.63
2023-01-18T18:57:32.016Z,99234.38
2023-01-18T18:59:58.574Z,99226.97
2023-01-18T19:02:25.080Z,99235.66
2023-01-18T19:04:51.483Z,99242.78
2023-01-18T19:07:18.652Z,99248.50
2023-01-18T19:09:45.014Z,99251.22
2023-01-18T19:12:11.725Z,99253.94
2023-01-18T19:14:38.236Z,99254.81
2023-01-18T19:17:04.627Z,99258.69
2023-01-18T19:19:31.134Z,99257.91
2023-01-18T19:21:57.494Z,99265.88
2023-01-18T19:24:24.073Z,99262.19
2023-01-18T19:26:50.436Z,99264.41
2023-01-18T19:29:16.876Z,99271.41
2023-01-18T19:31:43.324Z,99273.03
2023-01-18T19:34:09.815Z,99274.09
2023-01-18T19:36:36.166Z,99273.41
2023-01-18T19:39:03.476Z,99266.50
2023-01-18T19:41:31.956Z,99277.59
2023-01-18T19:43:58.406Z,99278.97
2023-01-18T19:46:24.817Z,99273.16
2023-01-18T19:48:56.508Z,99274.69
2023-01-18T19:51:23.336Z,99272.09
2023-01-18T19:53:52.504Z,99270.44
2023-01-18T19:56:19.184Z,99273.75
2023-01-18T19:58:45.609Z,99277.03
2023-01-18T20:01:20.451Z,99267.44
2023-01-18T20:03:53.150Z,99273.66
2023-01-18T20:06:19.980Z,99274.75
2023-01-18T20:08:46.658Z,99276.28
2023-01-18T20:11:14.587Z,99281.25
2023-01-18T20:13:43.928Z,99286.59
2023-01-18T20:16:10.347Z,99284.94
2023-01-18T20:18:40.764Z,99282.56
2023-01-18T20:21:12.224Z,99277.75
2023-01-18T20:23:38.658Z,99289.59
2023-01-18T20:26:05.705Z,99282.69
2023-01-18T20:28:33.049Z,99284.91
2023-01-18T20:31:02.736Z,99284.41
2023-01-18T20:33:29.458Z,99290.00
2023-01-18T20:35:55.861Z,99291.16
2023-01-18T20:38:22.236Z,99297.69
2023-01-18T20:40:48.594Z,99296.59
2023-01-18T20:43:15.200Z,99289.44
2023-01-18T20:45:41.634Z,99305.47
2023-01-18T20:48:08.118Z,99295.09
2023-01-18T20:50:34.556Z,99289.03
2023-01-18T20:53:01.310Z,99294.81
2023-01-18T20:55:27.887Z,99286.69
2023-01-18T20:57:55.189Z,99301.00
2023-01-18T21:00:22.458Z,99304.78
2023-01-18T21:02:49.437Z,99302.47
2023-01-18T21:05:15.858Z,99303.00
2023-01-18T21:07:42.416Z,99316.47
2023-01-18T21:10:10.484Z,99316.56
2023-01-18T21:12:36.947Z,99313.31
2023-01-18T21:15:06.468Z,99321.69
2023-01-18T21:17:32.930Z,99322.53
2023-01-18T21:19:59.302Z,99323.00
2023-01-18T21:22:25.706Z,99326.75
2023-01-18T21:24:52.266Z,99317.56
2023-01-18T21:27:18.676Z,99326.13
2023-01-18T21:29:45.316Z,99320.19
2023-01-18T21:32:11.701Z,99324.53
2023-01-18T21:34:38.083Z,99322.47
2023-01-18T21:37:04.471Z,99317.09
2023-01-18T21:39:30.952Z,99322.66
2023-01-18T21:42:16.251Z,99316.06
2023-01-18T21:45:01.387Z,99327.69
2023-01-18T21:47:27.771Z,99320.69
2023-01-18T21:50:17.916Z,99322.47
2023-01-18T21:53:03.513Z,99322.47
2023-01-18T21:55:29.918Z,99320.94
2023-01-18T21:58:22.400Z,99331.25
2023-01-18T22:00:48.830Z,99329.97
2023-01-18T22:03:18.254Z,99335.69
2023-01-18T22:05:44.722Z,99332.94
2023-01-18T22:08:11.094Z,99334.72
2023-01-18T22:10:37.492Z,99335.59
2023-01-18T22:13:03.878Z,99341.19
2023-01-18T22:15:30.278Z,99340.78
2023-01-18T22:17:56.804Z,99356.22
2023-01-18T22:20:23.182Z,99351.50
2023-01-18T22:22:50.376Z,99352.47
2023-01-18T22:25:16.801Z,99353.53
2023-01-18T22:27:43.240Z,99349.94
2023-01-18T22:30:10.374Z,99348.44
2023-01-18T22:32:36.745Z,99356.59
2023-01-18T22:35:03.150Z,99354.81
2023-01-18T22:37:29.665Z,99356.97
2023-01-18T22:39:56.043Z,99358.50
2023-01-18T22:42:22.451Z,99366.81
2023-01-18T22:44:48.847Z,99363.03
2023-01-18T22:47:15.217Z,99367.56
2023-01-18T22:49:41.695Z,99368.50
2023-01-18T22:52:08.092Z,99371.38
2023-01-18T22:54:34.514Z,99368.81
2023-01-18T22:57:00.961Z,99374.19
2023-01-18T22:59:27.434Z,99380.50
2023-01-18T23:01:53.846Z,99379.75
2023-01-18T23:04:20.467Z,99375.06
2023-01-18T23:06:47.679Z,99384.13
2023-01-18T23:09:16.069Z,99381.72
2023-01-18T23:11:42.771Z,99382.81
2023-01-18T23:14:27.789Z,99393.59
2023-01-18T23:17:13.003Z,99375.88
2023-01-18T23:19:39.434Z,99378.44
2023-01-18T23:22:07.247Z,99378.69
2023-01-18T23:24:35.235Z,99383.81
2023-01-18T23:27:02.053Z,99384.84
2023-01-18T23:29:28.430Z,99385.88
2023-01-18T23:31:56.141Z,99385.25
2023-01-18T23:34:23.939Z,99388.50
2023-01-18T23:36:51.138Z,99383.41
2023-01-18T23:39:36.216Z,99381.38
2023-01-18T23:42:21.050Z,99392.50
2023-01-18T23:45:06.086Z,99390.34
2023-01-18T23:47:51.196Z,99387.03
2023-01-18T23:50:36.332Z,99381.13
2023-01-18T23:53:21.013Z,99382.03
2023-01-18T23:55:51.104Z,99389.03
2023-01-18T23:58:17.518Z,99396.34
